createdAt,value
2018-01-29T00:00:54.618Z,90.90
2018-01-29T00:03:34.943Z,90.90
2018-01-29T00:06:04.047Z,91.10
2018-01-29T00:08:32.380Z,91.10
2018-01-29T00:11:00.667Z,91.20
2018-01-29T00:13:28.950Z,91.10
2018-01-29T00:15:57.276Z,91.10
2018-01-29T00:18:25.604Z,91.10
2018-01-29T00:20:54.691Z,91.10
2018-01-29T00:23:22.994Z,91.10
2018-01-29T00:25:52.084Z,91.30
2018-01-29T00:28:20.383Z,91.10
2018-01-29T00:30:48.705Z,91.10
2018-01-29T00:33:17.039Z,91.30
2018-01-29T00:35:45.336Z,91.30
2018-01-29T00:38:13.659Z,91.40
2018-01-29T00:40:42.774Z,91.30
2018-01-29T00:43:11.851Z,91.30
2018-01-29T00:45:52.994Z,91.30
2018-01-29T00:48:21.314Z,91.30
2018-01-29T00:50:49.636Z,91.40
2018-01-29T00:53:17.955Z,91.30
2018-01-29T00:55:46.230Z,91.50
2018-01-29T00:58:15.279Z,91.30
2018-01-29T01:00:43.599Z,91.30
2018-01-29T01:03:11.926Z,91.40
2018-01-29T01:05:40.213Z,91.50
2018-01-29T01:08:08.502Z,91.40
2018-01-29T01:10:36.827Z,91.30
2018-01-29T01:13:05.106Z,91.50
2018-01-29T01:18:26.446Z,91.40
2018-01-29T01:20:54.767Z,91.50
2018-01-29T01:23:23.058Z,91.60
2018-01-29T01:25:51.412Z,91.60
2018-01-29T01:28:19.694Z,91.60
2018-01-29T01:30:48.779Z,91.70
2018-01-29T01:33:17.058Z,91.60
2018-01-29T01:35:45.336Z,91.70
2018-01-29T01:38:13.650Z,91.70
2018-01-29T01:40:41.966Z,91.70
2018-01-29T01:43:10.292Z,91.80
2018-01-29T01:45:38.606Z,91.80
2018-01-29T01:48:06.929Z,91.80
2018-01-29T01:50:35.974Z,92.00
2018-01-29T01:53:18.002Z,91.90
2018-01-29T01:55:46.279Z,91.90
2018-01-29T01:58:14.595Z,91.90
2018-01-29T02:00:42.915Z,91.80
2018-01-29T02:03:11.964Z,91.80
2018-01-29T02:05:40.283Z,91.80
2018-01-29T02:08:08.558Z,91.80
2018-01-29T02:10:50.600Z,91.70
2018-01-29T02:13:18.880Z,91.80
2018-01-29T02:15:47.205Z,91.70
2018-01-29T02:18:15.490Z,91.80
2018-01-29T02:20:44.570Z,91.70
2018-01-29T02:23:12.863Z,91.70
2018-01-29T02:25:41.157Z,91.70
2018-01-29T02:28:09.478Z,91.70
2018-01-29T02:30:37.767Z,91.50
2018-01-29T02:33:06.066Z,91.70
2018-01-29T02:35:34.377Z,91.70
2018-01-29T02:38:02.698Z,91.70
2018-01-29T02:40:31.924Z,91.70
2018-01-29T02:43:01.007Z,91.70
2018-01-29T02:45:29.294Z,91.70
2018-01-29T02:47:57.583Z,91.70
2018-01-29T02:50:25.911Z,91.70
2018-01-29T02:52:54.963Z,91.70
2018-01-29T02:55:23.291Z,91.60
2018-01-29T02:57:51.570Z,91.50
2018-01-29T03:00:20.034Z,91.00
2018-01-29T03:02:48.319Z,91.30
2018-01-29T03:05:16.611Z,90.80
2018-01-29T03:07:44.946Z,90.80
2018-01-29T03:10:14.034Z,90.90
2018-01-29T03:12:42.322Z,90.60
2018-01-29T03:15:10.911Z,90.70
2018-01-29T03:17:39.206Z,91.00
2018-01-29T03:20:07.491Z,90.60
2018-01-29T03:22:35.815Z,90.70
2018-01-29T03:25:04.879Z,90.80
2018-01-29T03:27:33.243Z,90.80
2018-01-29T03:30:01.535Z,90.80
2018-01-29T03:32:29.820Z,90.60
2018-01-29T03:34:58.142Z,90.70
2018-01-29T03:37:26.435Z,90.70
2018-01-29T03:39:55.718Z,90.70
2018-01-29T03:42:24.031Z,90.80
2018-01-29T03:44:52.373Z,90.70
2018-01-29T03:47:20.668Z,90.70
2018-01-29T03:49:48.963Z,90.60
2018-01-29T03:52:19.208Z,90.60
2018-01-29T03:54:47.496Z,90.60
2018-01-29T03:57:15.816Z,90.50
2018-01-29T03:59:44.112Z,90.30
2018-01-29T04:02:12.471Z,90.30
2018-01-29T04:04:40.748Z,90.20
2018-01-29T04:07:10.314Z,90.30
2018-01-29T04:09:38.618Z,90.20
2018-01-29T04:12:07.681Z,90.30
2018-01-29T04:14:36.008Z,90.30
2018-01-29T04:19:59.068Z,90.30
2018-01-29T04:22:27.402Z,90.50
2018-01-29T04:24:55.874Z,90.50
2018-01-29T04:27:26.137Z,90.40
2018-01-29T04:29:55.189Z,90.40
2018-01-29T04:32:23.533Z,90.30
2018-01-29T04:34:51.822Z,90.30
2018-01-29T04:37:20.138Z,90.20
2018-01-29T04:39:48.467Z,90.20
2018-01-29T04:42:16.759Z,90.10
2018-01-29T04:44:45.140Z,90.10
2018-01-29T04:47:13.471Z,89.90
2018-01-29T04:49:41.763Z,89.80
2018-01-29T04:52:10.091Z,89.80
2018-01-29T04:54:38.374Z,89.70
2018-01-29T04:57:06.675Z,89.50
2018-01-29T04:59:35.110Z,89.40
2018-01-29T05:02:03.390Z,89.50
2018-01-29T05:04:31.691Z,89.50
2018-01-29T05:07:00.027Z,89.30
2018-01-29T05:09:28.358Z,89.30
2018-01-29T05:11:56.642Z,89.30
2018-01-29T05:14:24.982Z,89.40
2018-01-29T05:16:54.054Z,89.80
2018-01-29T05:19:22.343Z,89.80
2018-01-29T05:21:50.680Z,89.80
2018-01-29T05:24:18.963Z,89.80
2018-01-29T05:26:47.292Z,89.70
2018-01-29T05:29:15.584Z,89.80
2018-01-29T05:31:43.930Z,89.80
2018-01-29T05:34:12.310Z,90.00
2018-01-29T05:36:59.158Z,90.20
2018-01-29T05:39:29.155Z,90.30
2018-01-29T05:41:58.225Z,90.40
2018-01-29T05:44:26.516Z,90.40
2018-01-29T05:46:54.842Z,91.00
2018-01-29T05:49:23.910Z,91.20
2018-01-29T05:51:52.251Z,91.20
2018-01-29T05:54:21.614Z,90.60
2018-01-29T05:56:49.899Z,91.10
2018-01-29T05:59:18.191Z,90.60
2018-01-29T06:01:46.810Z,91.00
2018-01-29T06:04:15.466Z,91.10
2018-01-29T06:06:43.744Z,91.20
2018-01-29T06:09:12.858Z,91.20
2018-01-29T06:11:41.187Z,91.20
2018-01-29T06:14:09.467Z,91.20
2018-01-29T06:16:37.790Z,91.40
2018-01-29T06:19:06.079Z,91.30
2018-01-29T06:21:34.510Z,91.20
2018-01-29T06:24:02.790Z,91.20
2018-01-29T06:26:31.070Z,91.20
2018-01-29T06:29:00.175Z,91.10
2018-01-29T06:31:29.221Z,91.10
2018-01-29T06:33:57.538Z,91.10
2018-01-29T06:36:25.823Z,91.00
2018-01-29T06:38:54.151Z,90.90
2018-01-29T06:41:23.205Z,90.90
2018-01-29T06:43:51.530Z,90.90
2018-01-29T06:46:19.855Z,91.00
2018-01-29T06:48:48.143Z,90.70
2018-01-29T06:51:17.383Z,90.70
2018-01-29T06:53:45.676Z,90.70
2018-01-29T06:56:13.959Z,90.60
2018-01-29T06:58:42.431Z,90.60
2018-01-29T07:01:11.479Z,90.50
2018-01-29T07:03:39.761Z,90.50
2018-01-29T07:06:08.104Z,90.50
2018-01-29T07:08:37.206Z,90.40
2018-01-29T07:11:06.254Z,90.40
2018-01-29T07:13:34.542Z,90.40
2018-01-29T07:16:02.937Z,90.40
2018-01-29T07:18:31.219Z,90.40
2018-01-29T07:20:59.642Z,90.40
2018-01-29T07:23:28.000Z,90.30
2018-01-29T07:25:56.287Z,90.20
2018-01-29T07:28:24.570Z,90.20
2018-01-29T07:30:54.167Z,90.00
2018-01-29T07:33:22.455Z,90.00
2018-01-29T07:35:50.738Z,90.20
2018-01-29T07:38:19.063Z,88.20
2018-01-29T07:40:47.423Z,88.10
2018-01-29T07:43:15.715Z,87.10
2018-01-29T07:45:44.051Z,87.50
2018-01-29T07:48:12.343Z,87.10
2018-01-29T07:50:40.636Z,86.70
2018-01-29T07:53:08.971Z,87.10
2018-01-29T07:55:37.255Z,86.60
2018-01-29T07:58:05.632Z,86.70
2018-01-29T08:00:33.919Z,86.10
2018-01-29T08:03:03.440Z,86.20
2018-01-29T08:05:31.725Z,86.30
2018-01-29T08:08:00.012Z,86.50
2018-01-29T08:10:28.363Z,86.50
2018-01-29T08:12:56.647Z,87.60
2018-01-29T08:15:25.694Z,88.00
2018-01-29T08:17:54.027Z,87.90
2018-01-29T08:20:22.316Z,88.00
2018-01-29T08:22:50.607Z,87.20
2018-01-29T08:25:20.131Z,87.90
2018-01-29T08:27:49.323Z,87.30
2018-01-29T08:30:17.602Z,87.30
2018-01-29T08:32:45.962Z,87.30
2018-01-29T08:35:14.389Z,87.00
2018-01-29T08:37:42.675Z,86.60
2018-01-29T08:40:11.170Z,86.60
2018-01-29T08:42:39.465Z,86.20
2018-01-29T08:45:07.745Z,84.70
2018-01-29T08:47:36.102Z,85.90
2018-01-29T08:50:04.395Z,84.00
2018-01-29T08:52:32.696Z,84.10
2018-01-29T08:55:01.080Z,83.00
2018-01-29T08:57:29.362Z,82.70
2018-01-29T08:59:57.660Z,82.20
2018-01-29T09:02:26.059Z,81.30
2018-01-29T09:04:54.350Z,80.80
2018-01-29T09:07:22.710Z,80.50
2018-01-29T09:09:51.022Z,80.20
2018-01-29T09:12:19.426Z,79.40
2018-01-29T09:14:47.696Z,79.80
2018-01-29T09:17:15.991Z,79.30
2018-01-29T09:19:44.413Z,78.90
2018-01-29T09:22:12.772Z,78.00
2018-01-29T09:24:41.064Z,77.60
2018-01-29T09:27:09.351Z,77.60
2018-01-29T09:29:37.691Z,77.40
2018-01-29T09:32:06.063Z,77.00
2018-01-29T09:34:34.355Z,77.10
2018-01-29T09:37:02.883Z,76.20
2018-01-29T09:39:31.981Z,76.30
2018-01-29T09:42:00.266Z,76.30
2018-01-29T09:44:28.619Z,75.80
2018-01-29T09:46:56.907Z,75.70
2018-01-29T09:49:25.213Z,75.80
2018-01-29T09:51:54.754Z,75.30
2018-01-29T09:54:23.050Z,75.00
2018-01-29T09:56:51.339Z,74.40
2018-01-29T09:59:19.683Z,74.70
2018-01-29T10:01:47.981Z,74.80
2018-01-29T10:04:16.331Z,73.80
2018-01-29T10:06:44.622Z,73.70
2018-01-29T10:09:12.968Z,74.00
2018-01-29T10:11:41.261Z,73.70
2018-01-29T10:14:09.546Z,74.10
2018-01-29T10:16:37.874Z,74.40
2018-01-29T10:19:07.649Z,74.10
2018-01-29T10:21:35.934Z,74.10
2018-01-29T10:24:04.226Z,74.00
2018-01-29T10:26:32.700Z,73.50
2018-01-29T10:29:00.991Z,73.00
2018-01-29T10:31:29.282Z,73.80
2018-01-29T10:33:57.770Z,73.30
2018-01-29T10:36:26.066Z,73.50
2018-01-29T10:38:54.410Z,73.30
2018-01-29T10:41:22.744Z,73.60
2018-01-29T10:43:52.969Z,72.70
2018-01-29T10:46:22.937Z,72.80
2018-01-29T10:48:51.232Z,72.80
2018-01-29T10:51:19.579Z,72.80
2018-01-29T10:53:47.885Z,72.60
2018-01-29T10:56:16.361Z,72.40
2018-01-29T10:58:44.661Z,72.40
2018-01-29T11:01:19.508Z,73.10
2018-01-29T11:03:48.584Z,70.80
2018-01-29T11:06:16.895Z,70.80
2018-01-29T11:08:45.264Z,71.00
2018-01-29T11:11:14.471Z,70.50
2018-01-29T11:13:42.822Z,69.90
2018-01-29T11:16:14.180Z,70.20
2018-01-29T11:18:43.240Z,70.90
2018-01-29T11:21:11.601Z,70.80
2018-01-29T11:23:39.976Z,70.90
2018-01-29T11:26:08.276Z,71.10
2018-01-29T11:28:36.693Z,71.80
2018-01-29T11:31:05.896Z,71.90
2018-01-29T11:33:34.199Z,71.80
2018-01-29T11:36:02.512Z,72.90
2018-01-29T11:38:30.876Z,72.60
2018-01-29T11:40:59.172Z,72.60
2018-01-29T11:43:27.561Z,72.90
2018-01-29T11:45:55.869Z,72.80
2018-01-29T11:48:24.542Z,73.10
2018-01-29T11:50:52.851Z,73.00
2018-01-29T11:53:21.166Z,73.40
2018-01-29T11:55:49.529Z,73.90
2018-01-29T11:58:17.834Z,73.70
2018-01-29T12:00:46.198Z,73.90
2018-01-29T12:03:15.292Z,73.70
2018-01-29T12:05:43.596Z,73.80
2018-01-29T12:08:12.724Z,73.50
2018-01-29T12:10:41.095Z,73.40
2018-01-29T12:13:09.420Z,74.00
2018-01-29T12:15:37.820Z,72.40
2018-01-29T12:18:06.135Z,71.80
2018-01-29T12:20:34.479Z,72.40
2018-01-29T12:23:03.562Z,70.40
2018-01-29T12:25:32.324Z,70.40
2018-01-29T12:28:00.641Z,70.80
2018-01-29T12:30:29.704Z,69.90
2018-01-29T12:32:58.079Z,69.90
2018-01-29T12:35:26.376Z,70.20
2018-01-29T12:37:57.331Z,69.60
2018-01-29T12:40:26.411Z,69.10
2018-01-29T12:42:54.712Z,69.00
2018-01-29T12:45:23.896Z,68.30
2018-01-29T12:47:52.965Z,68.40
2018-01-29T12:50:21.341Z,68.40
2018-01-29T12:52:49.874Z,68.30
2018-01-29T12:55:18.230Z,67.40
2018-01-29T12:57:46.512Z,67.30
2018-01-29T13:00:15.624Z,67.00
2018-01-29T13:02:43.928Z,66.90
2018-01-29T13:05:12.389Z,65.60
2018-01-29T13:07:40.755Z,65.80
2018-01-29T13:10:09.059Z,64.70
2018-01-29T13:12:38.744Z,65.00
2018-01-29T13:15:07.052Z,65.40
2018-01-29T13:17:35.347Z,65.50
2018-01-29T13:20:03.767Z,66.50
2018-01-29T13:22:32.083Z,67.00
2018-01-29T13:25:00.398Z,66.20
2018-01-29T13:27:29.773Z,67.00
2018-01-29T13:29:58.077Z,67.00
2018-01-29T13:32:26.389Z,66.80
2018-01-29T13:34:54.780Z,67.10
2018-01-29T13:37:23.087Z,66.90
2018-01-29T13:39:51.557Z,66.90
2018-01-29T13:42:19.860Z,67.00
2018-01-29T13:44:48.163Z,66.60
2018-01-29T13:47:17.572Z,66.70
2018-01-29T13:49:46.644Z,67.50
2018-01-29T13:52:14.949Z,67.40
2018-01-29T13:54:44.072Z,67.60
2018-01-29T13:57:12.613Z,67.50
2018-01-29T13:59:41.700Z,67.70
2018-01-29T14:02:10.005Z,67.00
2018-01-29T14:04:39.138Z,67.80
2018-01-29T14:07:07.445Z,67.80
2018-01-29T14:09:35.756Z,67.00
2018-01-29T14:12:05.018Z,67.60
2018-01-29T14:14:33.324Z,67.50
2018-01-29T14:17:02.393Z,68.60
2018-01-29T14:19:35.822Z,68.50
2018-01-29T14:22:04.892Z,68.40
2018-01-29T14:24:33.313Z,68.30
2018-01-29T14:27:01.770Z,67.70
2018-01-29T14:29:30.832Z,68.40
2018-01-29T14:31:59.145Z,67.60
2018-01-29T14:34:28.299Z,67.90
2018-01-29T14:36:56.591Z,67.90
2018-01-29T14:39:25.013Z,67.60
2018-01-29T14:41:54.073Z,66.80
2018-01-29T14:44:22.372Z,66.70
2018-01-29T14:46:57.485Z,67.50
2018-01-29T14:49:25.916Z,67.50
2018-01-29T14:51:54.218Z,67.80
2018-01-29T14:54:22.552Z,67.50
2018-01-29T14:56:50.903Z,67.00
2018-01-29T14:59:19.261Z,67.00
2018-01-29T15:01:47.564Z,67.50
2018-01-29T15:04:15.910Z,67.40
2018-01-29T15:06:44.312Z,67.60
2018-01-29T15:09:12.616Z,67.40
2018-01-29T15:11:41.733Z,67.50
2018-01-29T15:14:10.037Z,67.60
2018-01-29T15:16:38.450Z,67.60
2018-01-29T15:19:06.864Z,67.90
2018-01-29T15:21:35.179Z,68.40
2018-01-29T15:24:03.570Z,68.10
2018-01-29T15:26:32.002Z,68.50
2018-01-29T15:29:00.344Z,68.60
2018-01-29T15:31:28.748Z,68.90
2018-01-29T15:33:57.111Z,68.90
2018-01-29T15:36:26.189Z,69.90
2018-01-29T15:38:54.505Z,69.90
2018-01-29T15:41:22.848Z,70.70
2018-01-29T15:43:51.164Z,70.80
2018-01-29T15:46:19.519Z,71.10
2018-01-29T15:48:48.587Z,72.00
2018-01-29T15:51:16.891Z,71.90
2018-01-29T15:53:45.999Z,72.30
2018-01-29T15:56:14.309Z,72.20
2018-01-29T15:58:42.619Z,72.60
2018-01-29T16:01:11.118Z,73.00
2018-01-29T16:03:40.177Z,73.80
2018-01-29T16:06:08.488Z,73.80
2018-01-29T16:08:36.908Z,74.00
2018-01-29T16:11:05.220Z,73.90
2018-01-29T16:13:33.564Z,74.40
2018-01-29T16:16:01.901Z,75.00
2018-01-29T16:18:30.205Z,75.20
2018-01-29T16:20:58.669Z,75.60
2018-01-29T16:23:28.040Z,76.10
2018-01-29T16:25:59.336Z,76.00
2018-01-29T16:28:27.632Z,76.30
2018-01-29T16:30:55.985Z,76.30
2018-01-29T16:33:24.305Z,76.20
2018-01-29T16:35:52.664Z,76.00
2018-01-29T16:38:20.964Z,76.20
2018-01-29T16:41:11.009Z,76.30
2018-01-29T16:43:39.305Z,76.00
2018-01-29T16:46:07.851Z,75.60
2018-01-29T16:48:36.941Z,75.50
2018-01-29T16:51:06.054Z,76.00
2018-01-29T16:53:34.356Z,75.30
2018-01-29T16:56:02.676Z,75.20
2018-01-29T16:58:32.207Z,75.20
2018-01-29T17:01:00.519Z,75.50
2018-01-29T17:03:28.820Z,75.30
2018-01-29T17:05:57.217Z,75.10
2018-01-29T17:08:25.520Z,75.20
2018-01-29T17:10:54.832Z,75.40
2018-01-29T17:13:23.176Z,75.40
2018-01-29T17:15:51.574Z,76.10
2018-01-29T17:18:20.644Z,76.00
2018-01-29T17:20:48.988Z,76.00
2018-01-29T17:23:17.348Z,76.50
2018-01-29T17:25:45.657Z,77.80
2018-01-29T17:28:13.985Z,76.80
2018-01-29T17:30:42.381Z,77.70
2018-01-29T17:33:10.733Z,78.00
2018-01-29T17:35:39.792Z,78.80
2018-01-29T17:38:08.118Z,78.80
2018-01-29T17:40:36.471Z,79.00
2018-01-29T17:43:04.772Z,79.40
2018-01-29T17:45:33.121Z,79.60
2018-01-29T17:48:01.555Z,80.30
2018-01-29T17:50:29.862Z,81.50
2018-01-29T17:52:58.192Z,81.70
2018-01-29T17:55:26.495Z,82.20
2018-01-29T17:57:54.900Z,83.10
2018-01-29T18:00:23.197Z,83.50
2018-01-29T18:02:51.560Z,84.00
2018-01-29T18:05:19.856Z,83.70
2018-01-29T18:07:48.941Z,83.90
2018-01-29T18:10:17.313Z,83.80
2018-01-29T18:12:45.626Z,84.00
2018-01-29T18:15:15.498Z,84.60
2018-01-29T18:17:43.845Z,84.60
2018-01-29T18:20:12.160Z,85.00
2018-01-29T18:22:40.524Z,85.10
2018-01-29T18:25:09.628Z,85.50
2018-01-29T18:27:38.098Z,85.40
2018-01-29T18:30:06.411Z,85.70
2018-01-29T18:32:34.700Z,85.70
2018-01-29T18:35:03.836Z,85.40
2018-01-29T18:37:32.218Z,85.30
2018-01-29T18:40:00.530Z,85.10
2018-01-29T18:42:28.903Z,85.20
2018-01-29T18:44:57.201Z,85.40
2018-01-29T18:47:26.270Z,85.30
2018-01-29T18:49:54.603Z,85.20
2018-01-29T18:52:26.867Z,85.70
2018-01-29T18:54:55.905Z,85.90
2018-01-29T18:57:24.283Z,85.60
2018-01-29T18:59:53.289Z,86.10
2018-01-29T19:02:27.513Z,86.50
2018-01-29T19:04:55.856Z,86.40
2018-01-29T19:07:24.155Z,86.50
2018-01-29T19:09:52.519Z,86.60
2018-01-29T19:12:20.854Z,87.50
2018-01-29T19:14:49.295Z,86.60
2018-01-29T19:17:17.596Z,86.60
2018-01-29T19:19:46.740Z,87.20
2018-01-29T19:22:15.049Z,87.20
2018-01-29T19:24:43.404Z,87.40
2018-01-29T19:27:11.698Z,87.60
2018-01-29T19:29:40.055Z,87.70
2018-01-29T19:32:08.464Z,87.80
2018-01-29T19:34:36.765Z,88.10
2018-01-29T19:37:05.833Z,88.50
2018-01-29T19:39:34.337Z,88.40
2018-01-29T19:42:03.435Z,88.80
2018-01-29T19:44:31.802Z,88.60
2018-01-29T19:47:00.104Z,89.40
2018-01-29T19:49:28.459Z,89.50
2018-01-29T19:51:57.079Z,89.50
2018-01-29T19:54:25.413Z,89.60
2018-01-29T19:56:53.716Z,90.00
2018-01-29T19:59:22.889Z,90.00
2018-01-29T20:01:51.247Z,89.90
2018-01-29T20:04:19.529Z,89.80
2018-01-29T20:06:48.225Z,90.00
2018-01-29T20:09:16.560Z,90.00
2018-01-29T20:11:51.829Z,89.80
2018-01-29T20:14:32.906Z,90.00
2018-01-29T20:17:03.272Z,90.00
2018-01-29T20:19:32.344Z,90.10
2018-01-29T20:22:00.644Z,90.10
2018-01-29T20:24:29.760Z,90.30
2018-01-29T20:26:58.063Z,90.30
2018-01-29T20:29:26.744Z,90.40
2018-01-29T20:31:55.959Z,90.40
2018-01-29T20:34:24.292Z,90.30
2018-01-29T20:36:52.692Z,90.40
2018-01-29T20:39:20.997Z,87.20
2018-01-29T20:41:49.363Z,88.10
2018-01-29T20:44:17.780Z,88.90
2018-01-29T20:46:46.857Z,87.50
2018-01-29T20:49:15.194Z,87.50
2018-01-29T20:51:43.567Z,88.00
2018-01-29T20:54:11.861Z,88.50
2018-01-29T20:56:40.161Z,88.40
2018-01-29T20:59:08.537Z,87.80
2018-01-29T21:01:36.837Z,89.70
2018-01-29T21:04:05.941Z,88.70
2018-01-29T21:06:35.009Z,88.90
2018-01-29T21:09:03.377Z,88.80
2018-01-29T21:11:31.735Z,87.90
2018-01-29T21:14:00.329Z,90.00
2018-01-29T21:16:28.649Z,88.60
2018-01-29T21:18:57.721Z,88.70
2018-01-29T21:21:26.173Z,88.00
2018-01-29T21:23:54.466Z,88.70
2018-01-29T21:26:22.761Z,88.90
2018-01-29T21:29:00.933Z,88.60
2018-01-29T21:31:29.267Z,88.30
2018-01-29T21:33:58.373Z,88.50
2018-01-29T21:36:27.451Z,88.00
2018-01-29T21:38:55.775Z,88.00
2018-01-29T21:41:24.112Z,87.70
2018-01-29T21:43:53.206Z,87.50
2018-01-29T21:46:22.458Z,87.50
2018-01-29T21:48:50.795Z,87.60
2018-01-29T21:51:30.837Z,87.40
2018-01-29T21:53:59.957Z,86.40
2018-01-29T21:56:28.260Z,86.30
2018-01-29T21:58:56.558Z,87.40
2018-01-29T22:01:24.892Z,87.40
2018-01-29T22:03:53.188Z,87.00
2018-01-29T22:06:21.617Z,86.70
2018-01-29T22:08:50.679Z,87.20
2018-01-29T22:11:18.979Z,86.70
2018-01-29T22:13:47.568Z,86.90
2018-01-29T22:16:16.649Z,86.50
2018-01-29T22:18:45.010Z,86.00
2018-01-29T22:21:13.368Z,86.70
2018-01-29T22:23:42.815Z,86.20
2018-01-29T22:26:11.197Z,86.40
2018-01-29T22:28:39.532Z,86.70
2018-01-29T22:31:07.840Z,85.30
2018-01-29T22:33:36.149Z,86.20
2018-01-29T22:36:05.248Z,84.80
2018-01-29T22:38:34.334Z,86.30
2018-01-29T22:41:02.669Z,86.30
2018-01-29T22:43:31.788Z,85.00
2018-01-29T22:46:00.127Z,84.90
2018-01-29T22:48:28.420Z,85.10
2018-01-29T22:50:56.758Z,84.30
2018-01-29T22:53:25.816Z,83.30
2018-01-29T22:55:54.107Z,83.30
2018-01-29T22:58:22.443Z,83.60
2018-01-29T23:00:50.779Z,83.30
2018-01-29T23:03:19.853Z,81.50
2018-01-29T23:05:48.213Z,81.40
2018-01-29T23:08:16.511Z,81.20
2018-01-29T23:10:44.808Z,81.40
2018-01-29T23:13:13.924Z,80.20
2018-01-29T23:15:42.227Z,80.00
2018-01-29T23:18:10.524Z,80.20
2018-01-29T23:20:38.856Z,79.90
2018-01-29T23:23:07.188Z,80.40
2018-01-29T23:25:35.484Z,81.30
2018-01-29T23:28:03.829Z,81.00
2018-01-29T23:30:32.127Z,81.30
2018-01-29T23:33:01.225Z,81.40
2018-01-29T23:35:29.533Z,80.60
2018-01-29T23:37:57.915Z,79.40
2018-01-29T23:40:26.183Z,79.80
2018-01-29T23:42:55.656Z,78.40
2018-01-29T23:45:23.957Z,78.90
2018-01-29T23:47:53.014Z,78.70
2018-01-29T23:50:21.397Z,78.70
2018-01-29T23:52:49.700Z,77.90
2018-01-29T23:55:18.761Z,78.50
2018-01-29T23:57:47.092Z,78.40
